Mead, WA (99021)

10:29 PM PST on January 29, 2015 (GMT -0800)
Little Spokane/Shady Slope | Change Station
CLOSE
Current Station
Personal Weather Station
Location: Spokane, WA
Elevation: 1667 ft
Nearby Weather Stations
Active Advisory: Dense Fog Advisory

Elev 1667 ft 47.80 °N, 117.38 °W | Updated 16 seconds ago

Mostly Cloudy
Mostly Cloudy
29.7 °F
Feels Like 30 °F
N
0.0
Wind Variable Wind from SE
Gusts 0.0 mph

Today
High -- | Low -- °F
--% Chance of Precip.
Yesterday
High -- | Low -- °F
Precip. -- in
7:20 AM 4:45 PM
Waxing Gibbous, 80% visible
Pressure 30.45 in
Visibility 0.2 miles
Clouds
Windchill 30 °F
Dew Point 28 °F
Humidity 94%
Rainfall 0.00 in
Snow Depth Not available.
UV 0.0 out of 12
Pollen .10 out of 12
Air Quality Not available.
Flu Activity Not available.
METAR KSFF 300553Z AUTO 00000KT 1/4SM FZFG VV002 M02/M03 A3039 RMK AO2 SLP310 I1000 I6001 T10171033 11006 21028 50002

More Conditions Fewer Conditions

Pressure 30.45 in
Visibility 0.2 miles
Clouds
Windchill 30 °F
Dew Point 28 °F
Humidity 94%
Rainfall 0.00 in
Snow Depth Not available.
UV 0.0 out of 12
Pollen .10 out of 12
Air Quality Not available.
Flu Activity Not available.
METAR KSFF 300553Z AUTO 00000KT 1/4SM FZFG VV002 M02/M03 A3039 RMK AO2 SLP310 I1000 I6001 T10171033 11006 21028 50002

More Conditions Fewer Conditions

Nowcast | as of 8:17 PM PST on January 29, 2015

Through Friday morning...areas of dense fog will reduce visibility to a quarter mile at times across portions of Spokane and Coeur D Alene. This includes the Interstate 90...Highway 2...Highway 195...and Highway 395. Temperatures are starting to cool near freezing and slick roads will be possible after midnight through the Friday morning commute. Motorists should prepare for rapid fluctuations in visibility and slick conditions in the morning.

×

10-Day Weather Forecast

Almanac

Astronomy

Jan. 29, 2015 Rise Set
Actual Time
Civil Twilight
Nautical Twilight
Astronomical Twilight
Moon
Length of Visible Light
Length of Day
Tomorrow will be .
, % of the Moon is Illuminated

Today's Extremes

State Highs State Lows

Community

WunderPhotos

Upload Photos

1,791,721 photos uploaded!

WunderBlogs® & News

Nearby

Air Quality

  Air Quality AQ Index Pollutant
Not available.

Snow Depth

Station Depth Elevation

Earthquake Activity

City Distance Mag. Time & Date
Minimum magnitude displayed is 2.5.

Coastal Water Temperatures

Place Temperature

Nearby Weather Stations